sensor_id;sensor_type;location;lat;lon;timestamp;temperature;humidity
5775;DHT22;2913;51.120;6.772;2022-09-02T00:00:54;19.20;67.30
5775;DHT22;2913;51.120;6.772;2022-09-02T00:03:27;19.20;67.50
5775;DHT22;2913;51.120;6.772;2022-09-02T00:05:53;19.20;67.90
5775;DHT22;2913;51.120;6.772;2022-09-02T00:08:18;19.20;67.90
5775;DHT22;2913;51.120;6.772;2022-09-02T00:10:46;19.10;67.80
5775;DHT22;2913;51.120;6.772;2022-09-02T00:13:14;19.10;68.10
5775;DHT22;2913;51.120;6.772;2022-09-02T00:15:41;19.10;68.20
5775;DHT22;2913;51.120;6.772;2022-09-02T00:18:07;19.10;68.60
5775;DHT22;2913;51.120;6.772;2022-09-02T00:20:35;19.00;68.60
5775;DHT22;2913;51.120;6.772;2022-09-02T00:23:03;19.00;68.70
5775;DHT22;2913;51.120;6.772;2022-09-02T00:25:33;18.90;69.20
5775;DHT22;2913;51.120;6.772;2022-09-02T00:27:59;18.90;69.20
5775;DHT22;2913;51.120;6.772;2022-09-02T00:30:24;18.90;69.40
5775;DHT22;2913;51.120;6.772;2022-09-02T00:32:52;18.90;69.50
5775;DHT22;2913;51.120;6.772;2022-09-02T00:35:20;18.90;69.50
5775;DHT22;2913;51.120;6.772;2022-09-02T00:37:46;18.80;69.50
5775;DHT22;2913;51.120;6.772;2022-09-02T00:40:15;18.80;69.70
5775;DHT22;2913;51.120;6.772;2022-09-02T00:42:41;18.80;69.80
5775;DHT22;2913;51.120;6.772;2022-09-02T00:45:10;18.80;70.00
5775;DHT22;2913;51.120;6.772;2022-09-02T00:47:39;18.80;70.50
5775;DHT22;2913;51.120;6.772;2022-09-02T00:50:08;18.80;70.10
5775;DHT22;2913;51.120;6.772;2022-09-02T00:52:42;18.70;70.20
5775;DHT22;2913;51.120;6.772;2022-09-02T00:55:20;18.70;70.50
5775;DHT22;2913;51.120;6.772;2022-09-02T00:57:53;18.70;70.60
5775;DHT22;2913;51.120;6.772;2022-09-02T01:00:26;18.70;70.90
5775;DHT22;2913;51.120;6.772;2022-09-02T01:02:55;18.70;70.80
5775;DHT22;2913;51.120;6.772;2022-09-02T01:05:24;18.70;70.90
5775;DHT22;2913;51.120;6.772;2022-09-02T01:07:56;18.60;70.90
5775;DHT22;2913;51.120;6.772;2022-09-02T01:10:26;18.60;71.00
5775;DHT22;2913;51.120;6.772;2022-09-02T01:12:59;18.70;71.00
5775;DHT22;2913;51.120;6.772;2022-09-02T01:15:26;18.70;71.20
5775;DHT22;2913;51.120;6.772;2022-09-02T01:17:54;18.60;71.10
5775;DHT22;2913;51.120;6.772;2022-09-02T01:20:22;18.60;71.40
5775;DHT22;2913;51.120;6.772;2022-09-02T01:22:49;18.60;71.60
5775;DHT22;2913;51.120;6.772;2022-09-02T01:25:24;18.60;71.50
5775;DHT22;2913;51.120;6.772;2022-09-02T01:27:51;18.60;71.70
5775;DHT22;2913;51.120;6.772;2022-09-02T01:30:23;18.60;71.80
5775;DHT22;2913;51.120;6.772;2022-09-02T01:32:52;18.60;71.70
5775;DHT22;2913;51.120;6.772;2022-09-02T01:35:21;18.50;71.80
5775;DHT22;2913;51.120;6.772;2022-09-02T01:37:47;18.50;72.00
5775;DHT22;2913;51.120;6.772;2022-09-02T01:40:16;18.40;72.20
5775;DHT22;2913;51.120;6.772;2022-09-02T01:42:42;18.40;72.20
5775;DHT22;2913;51.120;6.772;2022-09-02T01:45:09;18.40;72.30
5775;DHT22;2913;51.120;6.772;2022-09-02T01:47:37;18.40;72.60
5775;DHT22;2913;51.120;6.772;2022-09-02T01:50:05;18.30;72.60
5775;DHT22;2913;51.120;6.772;2022-09-02T01:52:31;18.40;72.90
5775;DHT22;2913;51.120;6.772;2022-09-02T01:54:57;18.40;72.90
5775;DHT22;2913;51.120;6.772;2022-09-02T01:57:23;18.30;72.90
5775;DHT22;2913;51.120;6.772;2022-09-02T01:59:50;18.40;73.00
5775;DHT22;2913;51.120;6.772;2022-09-02T02:02:16;18.40;73.00
5775;DHT22;2913;51.120;6.772;2022-09-02T02:04:47;18.40;73.00
5775;DHT22;2913;51.120;6.772;2022-09-02T02:07:17;18.40;73.00
5775;DHT22;2913;51.120;6.772;2022-09-02T02:09:45;18.40;73.00
5775;DHT22;2913;51.120;6.772;2022-09-02T02:12:11;18.40;73.10
5775;DHT22;2913;51.120;6.772;2022-09-02T02:14:37;18.40;73.10
5775;DHT22;2913;51.120;6.772;2022-09-02T02:17:03;18.40;73.10
5775;DHT22;2913;51.120;6.772;2022-09-02T02:19:29;18.40;73.00
5775;DHT22;2913;51.120;6.772;2022-09-02T02:21:55;18.40;73.40
5775;DHT22;2913;51.120;6.772;2022-09-02T02:24:20;18.40;73.50
5775;DHT22;2913;51.120;6.772;2022-09-02T02:26:48;18.40;73.60
5775;DHT22;2913;51.120;6.772;2022-09-02T02:29:16;18.40;73.60
5775;DHT22;2913;51.120;6.772;2022-09-02T02:31:44;18.40;73.80
5775;DHT22;2913;51.120;6.772;2022-09-02T02:34:10;18.40;73.70
5775;DHT22;2913;51.120;6.772;2022-09-02T02:36:41;18.40;73.80
5775;DHT22;2913;51.120;6.772;2022-09-02T02:39:08;18.40;73.90
5775;DHT22;2913;51.120;6.772;2022-09-02T02:41:38;18.40;73.90
5775;DHT22;2913;51.120;6.772;2022-09-02T02:44:04;18.30;73.90
5775;DHT22;2913;51.120;6.772;2022-09-02T02:46:29;18.30;74.00
5775;DHT22;2913;51.120;6.772;2022-09-02T02:48:59;18.30;74.10
5775;DHT22;2913;51.120;6.772;2022-09-02T02:51:25;18.30;74.40
5775;DHT22;2913;51.120;6.772;2022-09-02T02:53:51;18.30;74.60
5775;DHT22;2913;51.120;6.772;2022-09-02T02:56:17;18.30;74.80
5775;DHT22;2913;51.120;6.772;2022-09-02T02:58:44;18.30;75.20
5775;DHT22;2913;51.120;6.772;2022-09-02T03:01:10;18.30;75.50
5775;DHT22;2913;51.120;6.772;2022-09-02T03:03:36;18.20;75.70
5775;DHT22;2913;51.120;6.772;2022-09-02T03:06:04;18.30;75.90
5775;DHT22;2913;51.120;6.772;2022-09-02T03:08:32;18.30;76.00
5775;DHT22;2913;51.120;6.772;2022-09-02T03:10:59;18.30;76.10
5775;DHT22;2913;51.120;6.772;2022-09-02T03:13:25;18.30;76.30
5775;DHT22;2913;51.120;6.772;2022-09-02T03:15:54;18.20;76.60
5775;DHT22;2913;51.120;6.772;2022-09-02T03:18:20;18.20;76.80
5775;DHT22;2913;51.120;6.772;2022-09-02T03:20:45;18.20;77.10
5775;DHT22;2913;51.120;6.772;2022-09-02T03:23:14;18.20;77.20
5775;DHT22;2913;51.120;6.772;2022-09-02T03:25:43;18.20;77.40
5775;DHT22;2913;51.120;6.772;2022-09-02T03:28:10;18.20;77.80
5775;DHT22;2913;51.120;6.772;2022-09-02T03:30:36;18.20;78.00
5775;DHT22;2913;51.120;6.772;2022-09-02T03:33:03;18.20;77.60
5775;DHT22;2913;51.120;6.772;2022-09-02T03:35:31;18.20;77.90
5775;DHT22;2913;51.120;6.772;2022-09-02T03:38:02;18.30;78.20
5775;DHT22;2913;51.120;6.772;2022-09-02T03:40:30;18.20;78.10
5775;DHT22;2913;51.120;6.772;2022-09-02T03:42:56;18.30;78.40
5775;DHT22;2913;51.120;6.772;2022-09-02T03:45:24;18.30;78.40
5775;DHT22;2913;51.120;6.772;2022-09-02T03:47:52;18.20;78.50
5775;DHT22;2913;51.120;6.772;2022-09-02T03:50:24;18.20;78.60
5775;DHT22;2913;51.120;6.772;2022-09-02T03:52:52;18.20;78.80
5775;DHT22;2913;51.120;6.772;2022-09-02T03:55:19;18.20;79.00
5775;DHT22;2913;51.120;6.772;2022-09-02T03:57:45;18.20;79.00
5775;DHT22;2913;51.120;6.772;2022-09-02T04:00:16;18.10;78.80
5775;DHT22;2913;51.120;6.772;2022-09-02T04:02:42;18.10;78.90
5775;DHT22;2913;51.120;6.772;2022-09-02T04:05:08;18.10;79.20
5775;DHT22;2913;51.120;6.772;2022-09-02T04:07:34;18.10;79.20
5775;DHT22;2913;51.120;6.772;2022-09-02T04:10:02;18.10;79.20
5775;DHT22;2913;51.120;6.772;2022-09-02T04:12:31;18.10;79.60
5775;DHT22;2913;51.120;6.772;2022-09-02T04:14:57;18.00;79.50
5775;DHT22;2913;51.120;6.772;2022-09-02T04:20:51;18.00;79.90
5775;DHT22;2913;51.120;6.772;2022-09-02T04:23:17;18.00;79.90
5775;DHT22;2913;51.120;6.772;2022-09-02T04:25:43;17.90;80.20
5775;DHT22;2913;51.120;6.772;2022-09-02T04:28:11;17.90;80.20
5775;DHT22;2913;51.120;6.772;2022-09-02T04:30:38;17.90;80.40
5775;DHT22;2913;51.120;6.772;2022-09-02T04:33:11;17.90;80.70
5775;DHT22;2913;51.120;6.772;2022-09-02T04:35:42;17.90;81.10
5775;DHT22;2913;51.120;6.772;2022-09-02T04:38:10;17.90;81.40
5775;DHT22;2913;51.120;6.772;2022-09-02T04:40:41;17.80;81.60
5775;DHT22;2913;51.120;6.772;2022-09-02T04:43:07;17.80;81.90
5775;DHT22;2913;51.120;6.772;2022-09-02T04:45:39;17.80;82.30
5775;DHT22;2913;51.120;6.772;2022-09-02T04:48:08;17.80;82.60
5775;DHT22;2913;51.120;6.772;2022-09-02T04:50:35;17.80;82.60
5775;DHT22;2913;51.120;6.772;2022-09-02T04:53:04;17.70;82.70
5775;DHT22;2913;51.120;6.772;2022-09-02T04:55:33;17.80;83.20
5775;DHT22;2913;51.120;6.772;2022-09-02T04:57:58;17.70;83.00
5775;DHT22;2913;51.120;6.772;2022-09-02T05:00:29;17.70;83.30
5775;DHT22;2913;51.120;6.772;2022-09-02T05:02:54;17.70;83.40
5775;DHT22;2913;51.120;6.772;2022-09-02T05:05:23;17.70;83.30
5775;DHT22;2913;51.120;6.772;2022-09-02T05:07:48;17.70;83.80
5775;DHT22;2913;51.120;6.772;2022-09-02T05:10:14;17.70;84.00
5775;DHT22;2913;51.120;6.772;2022-09-02T05:12:42;17.70;84.30
5775;DHT22;2913;51.120;6.772;2022-09-02T05:15:09;17.80;84.30
5775;DHT22;2913;51.120;6.772;2022-09-02T05:17:35;17.90;84.00
5775;DHT22;2913;51.120;6.772;2022-09-02T05:20:05;17.90;84.00
5775;DHT22;2913;51.120;6.772;2022-09-02T05:22:35;17.90;84.30
5775;DHT22;2913;51.120;6.772;2022-09-02T05:25:01;17.80;85.20
5775;DHT22;2913;51.120;6.772;2022-09-02T05:27:29;17.90;85.90
5775;DHT22;2913;51.120;6.772;2022-09-02T05:29:57;18.20;86.10
5775;DHT22;2913;51.120;6.772;2022-09-02T05:32:25;18.40;84.70
5775;DHT22;2913;51.120;6.772;2022-09-02T05:34:54;18.60;83.10
5775;DHT22;2913;51.120;6.772;2022-09-02T05:37:20;18.80;82.10
5775;DHT22;2913;51.120;6.772;2022-09-02T05:39:46;19.00;80.90
5775;DHT22;2913;51.120;6.772;2022-09-02T05:42:12;19.30;79.60
5775;DHT22;2913;51.120;6.772;2022-09-02T05:44:37;19.50;78.40
5775;DHT22;2913;51.120;6.772;2022-09-02T05:47:04;19.60;77.50
5775;DHT22;2913;51.120;6.772;2022-09-02T05:49:30;19.80;76.70
5775;DHT22;2913;51.120;6.772;2022-09-02T05:51:58;19.90;76.00
5775;DHT22;2913;51.120;6.772;2022-09-02T05:54:32;19.90;75.50
5775;DHT22;2913;51.120;6.772;2022-09-02T05:57:01;20.10;75.30
5775;DHT22;2913;51.120;6.772;2022-09-02T05:59:30;20.20;74.60
5775;DHT22;2913;51.120;6.772;2022-09-02T06:01:57;20.20;74.10
5775;DHT22;2913;51.120;6.772;2022-09-02T06:04:25;20.40;73.70
5775;DHT22;2913;51.120;6.772;2022-09-02T06:06:53;20.50;73.30
5775;DHT22;2913;51.120;6.772;2022-09-02T06:09:21;20.60;72.80
5775;DHT22;2913;51.120;6.772;2022-09-02T06:11:50;20.70;72.60
5775;DHT22;2913;51.120;6.772;2022-09-02T06:14:21;20.90;72.40
5775;DHT22;2913;51.120;6.772;2022-09-02T06:16:48;21.00;72.30
5775;DHT22;2913;51.120;6.772;2022-09-02T06:19:15;21.20;71.50
5775;DHT22;2913;51.120;6.772;2022-09-02T06:21:46;21.20;71.30
5775;DHT22;2913;51.120;6.772;2022-09-02T06:24:12;21.20;71.40
5775;DHT22;2913;51.120;6.772;2022-09-02T06:26:41;21.20;71.30
5775;DHT22;2913;51.120;6.772;2022-09-02T06:29:08;21.40;71.30
5775;DHT22;2913;51.120;6.772;2022-09-02T06:31:38;21.50;70.90
5775;DHT22;2913;51.120;6.772;2022-09-02T06:34:04;21.40;70.40
5775;DHT22;2913;51.120;6.772;2022-09-02T06:36:30;21.80;70.80
5775;DHT22;2913;51.120;6.772;2022-09-02T06:38:57;22.00;69.90
5775;DHT22;2913;51.120;6.772;2022-09-02T06:41:27;22.00;69.40
5775;DHT22;2913;51.120;6.772;2022-09-02T06:43:59;22.10;69.40
5775;DHT22;2913;51.120;6.772;2022-09-02T06:46:28;21.80;69.20
5775;DHT22;2913;51.120;6.772;2022-09-02T06:48:58;21.80;69.80
5775;DHT22;2913;51.120;6.772;2022-09-02T06:51:26;22.00;70.20
5775;DHT22;2913;51.120;6.772;2022-09-02T06:53:52;21.90;69.60
5775;DHT22;2913;51.120;6.772;2022-09-02T06:56:21;21.80;69.40
5775;DHT22;2913;51.120;6.772;2022-09-02T06:58:49;22.20;70.30
5775;DHT22;2913;51.120;6.772;2022-09-02T07:01:20;22.00;69.50
5775;DHT22;2913;51.120;6.772;2022-09-02T07:03:46;21.90;69.50
5775;DHT22;2913;51.120;6.772;2022-09-02T07:06:35;21.40;69.80
5775;DHT22;2913;51.120;6.772;2022-09-02T07:09:06;21.20;70.80
5775;DHT22;2913;51.120;6.772;2022-09-02T07:11:33;21.10;71.20
5775;DHT22;2913;51.120;6.772;2022-09-02T07:13:59;20.90;71.80
5775;DHT22;2913;51.120;6.772;2022-09-02T07:16:28;20.80;72.40
5775;DHT22;2913;51.120;6.772;2022-09-02T07:18:56;20.70;72.40
5775;DHT22;2913;51.120;6.772;2022-09-02T07:21:28;20.70;73.10
5775;DHT22;2913;51.120;6.772;2022-09-02T07:23:57;20.70;73.30
5775;DHT22;2913;51.120;6.772;2022-09-02T07:26:24;20.70;73.50
5775;DHT22;2913;51.120;6.772;2022-09-02T07:28:49;20.90;73.50
5775;DHT22;2913;51.120;6.772;2022-09-02T07:31:18;21.10;73.50
5775;DHT22;2913;51.120;6.772;2022-09-02T07:33:46;21.20;73.60
5775;DHT22;2913;51.120;6.772;2022-09-02T07:36:15;21.50;73.20
5775;DHT22;2913;51.120;6.772;2022-09-02T07:38:43;21.50;72.80
5775;DHT22;2913;51.120;6.772;2022-09-02T07:41:11;21.80;72.90
5775;DHT22;2913;51.120;6.772;2022-09-02T07:43:38;21.90;72.70
5775;DHT22;2913;51.120;6.772;2022-09-02T07:46:06;21.70;72.20
5775;DHT22;2913;51.120;6.772;2022-09-02T07:48:33;21.70;72.30
5775;DHT22;2913;51.120;6.772;2022-09-02T07:51:00;21.60;72.30
5775;DHT22;2913;51.120;6.772;2022-09-02T07:53:26;21.70;72.30
5775;DHT22;2913;51.120;6.772;2022-09-02T07:55:58;21.80;72.20
5775;DHT22;2913;51.120;6.772;2022-09-02T07:58:24;21.90;72.00
5775;DHT22;2913;51.120;6.772;2022-09-02T08:00:54;22.10;71.70
5775;DHT22;2913;51.120;6.772;2022-09-02T08:03:24;22.20;71.40
5775;DHT22;2913;51.120;6.772;2022-09-02T08:05:51;22.20;71.30
5775;DHT22;2913;51.120;6.772;2022-09-02T08:08:18;22.10;71.30
5775;DHT22;2913;51.120;6.772;2022-09-02T08:10:49;22.00;71.00
5775;DHT22;2913;51.120;6.772;2022-09-02T08:13:17;21.90;70.80
5775;DHT22;2913;51.120;6.772;2022-09-02T08:15:44;22.00;71.60
5775;DHT22;2913;51.120;6.772;2022-09-02T08:18:10;21.80;71.40
5775;DHT22;2913;51.120;6.772;2022-09-02T08:20:38;21.80;71.60
5775;DHT22;2913;51.120;6.772;2022-09-02T08:23:05;21.90;71.70
5775;DHT22;2913;51.120;6.772;2022-09-02T08:25:37;22.30;72.10
5775;DHT22;2913;51.120;6.772;2022-09-02T08:28:03;22.50;71.60
5775;DHT22;2913;51.120;6.772;2022-09-02T08:30:31;22.50;70.90
5775;DHT22;2913;51.120;6.772;2022-09-02T08:32:58;22.50;70.70
5775;DHT22;2913;51.120;6.772;2022-09-02T08:35:26;22.40;70.40
5775;DHT22;2913;51.120;6.772;2022-09-02T08:37:52;22.40;70.70
5775;DHT22;2913;51.120;6.772;2022-09-02T08:40:27;22.50;70.60
5775;DHT22;2913;51.120;6.772;2022-09-02T08:42:55;22.50;70.50
5775;DHT22;2913;51.120;6.772;2022-09-02T08:45:37;22.50;70.40
5775;DHT22;2913;51.120;6.772;2022-09-02T08:48:10;22.60;70.30
5775;DHT22;2913;51.120;6.772;2022-09-02T08:50:41;22.70;70.30
5775;DHT22;2913;51.120;6.772;2022-09-02T08:53:27;22.90;70.50
5775;DHT22;2913;51.120;6.772;2022-09-02T08:56:00;23.00;70.20
5775;DHT22;2913;51.120;6.772;2022-09-02T08:58:35;22.70;69.10
5775;DHT22;2913;51.120;6.772;2022-09-02T09:19:52;23.50;68.80
5775;DHT22;2913;51.120;6.772;2022-09-02T09:22:37;23.50;68.40
5775;DHT22;2913;51.120;6.772;2022-09-02T09:25:10;23.80;68.60
5775;DHT22;2913;51.120;6.772;2022-09-02T09:27:38;23.70;67.90
5775;DHT22;2913;51.120;6.772;2022-09-02T09:30:08;23.80;67.10
5775;DHT22;2913;51.120;6.772;2022-09-02T09:32:40;24.00;68.00
5775;DHT22;2913;51.120;6.772;2022-09-02T09:35:09;24.10;67.20
5775;DHT22;2913;51.120;6.772;2022-09-02T09:37:49;24.30;67.10
5775;DHT22;2913;51.120;6.772;2022-09-02T09:48:25;24.40;66.00
5775;DHT22;2913;51.120;6.772;2022-09-02T09:58:22;24.60;63.70
5775;DHT22;2913;51.120;6.772;2022-09-02T10:00:50;24.60;63.90
5775;DHT22;2913;51.120;6.772;2022-09-02T10:03:24;24.90;63.40
5775;DHT22;2913;51.120;6.772;2022-09-02T10:05:59;25.00;61.00
5775;DHT22;2913;51.120;6.772;2022-09-02T10:08:54;25.10;60.50
5775;DHT22;2913;51.120;6.772;2022-09-02T10:11:25;25.20;59.60
5775;DHT22;2913;51.120;6.772;2022-09-02T10:13:57;25.30;60.60
5775;DHT22;2913;51.120;6.772;2022-09-02T10:17:11;25.40;59.30
5775;DHT22;2913;51.120;6.772;2022-09-02T10:22:45;25.50;58.20
5775;DHT22;2913;51.120;6.772;2022-09-02T10:25:37;25.50;58.00
5775;DHT22;2913;51.120;6.772;2022-09-02T10:38:40;25.60;57.40
5775;DHT22;2913;51.120;6.772;2022-09-02T10:41:39;25.40;56.60
5775;DHT22;2913;51.120;6.772;2022-09-02T10:44:31;25.50;56.40
5775;DHT22;2913;51.120;6.772;2022-09-02T10:47:02;25.70;55.70
5775;DHT22;2913;51.120;6.772;2022-09-02T10:57:58;25.20;54.70
5775;DHT22;2913;51.120;6.772;2022-09-02T11:00:28;25.60;54.90
5775;DHT22;2913;51.120;6.772;2022-09-02T11:03:55;25.70;53.80
5775;DHT22;2913;51.120;6.772;2022-09-02T11:06:20;25.80;53.90
5775;DHT22;2913;51.120;6.772;2022-09-02T11:08:53;25.70;54.30
5775;DHT22;2913;51.120;6.772;2022-09-02T11:11:29;25.70;53.80
5775;DHT22;2913;51.120;6.772;2022-09-02T11:16:33;25.50;53.50
5775;DHT22;2913;51.120;6.772;2022-09-02T11:21:46;25.70;53.30
5775;DHT22;2913;51.120;6.772;2022-09-02T11:29:54;25.60;54.00
5775;DHT22;2913;51.120;6.772;2022-09-02T11:32:52;25.70;54.20
5775;DHT22;2913;51.120;6.772;2022-09-02T11:35:24;25.40;53.60
5775;DHT22;2913;51.120;6.772;2022-09-02T11:38:08;25.30;53.70
5775;DHT22;2913;51.120;6.772;2022-09-02T11:49:38;25.50;53.30
5775;DHT22;2913;51.120;6.772;2022-09-02T11:52:30;25.40;53.10
5775;DHT22;2913;51.120;6.772;2022-09-02T11:55:16;25.70;53.00
5775;DHT22;2913;51.120;6.772;2022-09-02T11:57:53;26.00;52.60
5775;DHT22;2913;51.120;6.772;2022-09-02T12:00:35;26.10;52.20
5775;DHT22;2913;51.120;6.772;2022-09-02T12:03:22;26.40;51.90
5775;DHT22;2913;51.120;6.772;2022-09-02T12:11:02;26.00;51.60
5775;DHT22;2913;51.120;6.772;2022-09-02T12:21:32;26.60;51.20
5775;DHT22;2913;51.120;6.772;2022-09-02T12:31:45;26.70;50.40
5775;DHT22;2913;51.120;6.772;2022-09-02T12:50:29;27.40;50.00
5775;DHT22;2913;51.120;6.772;2022-09-02T12:58:46;27.40;49.80
5775;DHT22;2913;51.120;6.772;2022-09-02T13:15:37;27.10;49.20
5775;DHT22;2913;51.120;6.772;2022-09-02T13:26:59;27.40;49.60
5775;DHT22;2913;51.120;6.772;2022-09-02T13:32:20;27.40;49.40
5775;DHT22;2913;51.120;6.772;2022-09-02T13:34:53;27.50;49.20
5775;DHT22;2913;51.120;6.772;2022-09-02T13:37:37;27.70;49.90
5775;DHT22;2913;51.120;6.772;2022-09-02T13:40:16;27.50;48.50
5775;DHT22;2913;51.120;6.772;2022-09-02T13:42:53;27.80;49.20
5775;DHT22;2913;51.120;6.772;2022-09-02T13:45:27;27.90;49.60
5775;DHT22;2913;51.120;6.772;2022-09-02T13:47:58;28.00;48.40
5775;DHT22;2913;51.120;6.772;2022-09-02T13:50:30;27.70;48.60
5775;DHT22;2913;51.120;6.772;2022-09-02T13:53:04;27.90;48.80
5775;DHT22;2913;51.120;6.772;2022-09-02T13:55:34;28.00;49.30
5775;DHT22;2913;51.120;6.772;2022-09-02T13:58:08;28.00;48.90
5775;DHT22;2913;51.120;6.772;2022-09-02T14:00:44;27.60;48.60
5775;DHT22;2913;51.120;6.772;2022-09-02T14:03:16;27.40;48.50
5775;DHT22;2913;51.120;6.772;2022-09-02T14:05:47;27.40;48.50
5775;DHT22;2913;51.120;6.772;2022-09-02T14:08:27;27.40;48.80
5775;DHT22;2913;51.120;6.772;2022-09-02T14:10:54;27.40;49.10
5775;DHT22;2913;51.120;6.772;2022-09-02T14:13:21;27.30;49.00
5775;DHT22;2913;51.120;6.772;2022-09-02T14:15:47;27.40;49.00
5775;DHT22;2913;51.120;6.772;2022-09-02T14:18:19;27.00;48.90
5775;DHT22;2913;51.120;6.772;2022-09-02T14:21:15;27.20;48.90
5775;DHT22;2913;51.120;6.772;2022-09-02T14:23:51;27.20;48.60
5775;DHT22;2913;51.120;6.772;2022-09-02T14:26:40;27.30;48.50
5775;DHT22;2913;51.120;6.772;2022-09-02T14:29:09;27.00;48.40
5775;DHT22;2913;51.120;6.772;2022-09-02T14:31:36;27.00;48.90
5775;DHT22;2913;51.120;6.772;2022-09-02T14:36:57;26.80;49.50
5775;DHT22;2913;51.120;6.772;2022-09-02T14:39:23;26.80;49.30
5775;DHT22;2913;51.120;6.772;2022-09-02T14:41:55;26.70;49.70
5775;DHT22;2913;51.120;6.772;2022-09-02T14:44:30;26.70;49.60
5775;DHT22;2913;51.120;6.772;2022-09-02T14:47:06;26.70;49.80
5775;DHT22;2913;51.120;6.772;2022-09-02T14:54:51;26.30;50.50
5775;DHT22;2913;51.120;6.772;2022-09-02T14:59:52;26.70;50.90
5775;DHT22;2913;51.120;6.772;2022-09-02T15:05:00;27.00;50.50
5775;DHT22;2913;51.120;6.772;2022-09-02T15:07:26;27.00;50.40
5775;DHT22;2913;51.120;6.772;2022-09-02T15:09:52;27.00;50.10
5775;DHT22;2913;51.120;6.772;2022-09-02T15:12:24;27.00;50.30
5775;DHT22;2913;51.120;6.772;2022-09-02T15:14:51;26.80;49.90
5775;DHT22;2913;51.120;6.772;2022-09-02T15:17:18;26.80;50.30
5775;DHT22;2913;51.120;6.772;2022-09-02T15:19:46;26.80;50.30
5775;DHT22;2913;51.120;6.772;2022-09-02T15:22:12;26.60;50.00
5775;DHT22;2913;51.120;6.772;2022-09-02T15:24:41;26.70;50.80
5775;DHT22;2913;51.120;6.772;2022-09-02T15:27:10;26.70;50.30
5775;DHT22;2913;51.120;6.772;2022-09-02T15:29:38;26.70;50.50
5775;DHT22;2913;51.120;6.772;2022-09-02T15:32:07;26.60;50.20
5775;DHT22;2913;51.120;6.772;2022-09-02T15:34:34;26.70;50.70
5775;DHT22;2913;51.120;6.772;2022-09-02T15:37:01;26.60;50.00
5775;DHT22;2913;51.120;6.772;2022-09-02T15:39:27;26.60;50.40
5775;DHT22;2913;51.120;6.772;2022-09-02T15:41:53;26.60;50.10
5775;DHT22;2913;51.120;6.772;2022-09-02T15:44:23;26.70;50.00
5775;DHT22;2913;51.120;6.772;2022-09-02T15:46:53;26.60;50.00
5775;DHT22;2913;51.120;6.772;2022-09-02T15:49:20;26.60;49.90
5775;DHT22;2913;51.120;6.772;2022-09-02T15:51:47;26.60;49.80
5775;DHT22;2913;51.120;6.772;2022-09-02T15:54:21;26.60;49.80
5775;DHT22;2913;51.120;6.772;2022-09-02T15:56:47;26.40;49.80
5775;DHT22;2913;51.120;6.772;2022-09-02T15:59:16;26.40;49.40
5775;DHT22;2913;51.120;6.772;2022-09-02T16:01:47;26.40;49.50
5775;DHT22;2913;51.120;6.772;2022-09-02T16:04:18;26.50;49.40
5775;DHT22;2913;51.120;6.772;2022-09-02T16:06:45;26.50;49.40
5775;DHT22;2913;51.120;6.772;2022-09-02T16:09:13;26.40;49.50
5775;DHT22;2913;51.120;6.772;2022-09-02T16:11:44;26.40;49.40
5775;DHT22;2913;51.120;6.772;2022-09-02T16:14:11;26.40;49.20
5775;DHT22;2913;51.120;6.772;2022-09-02T16:16:37;26.40;49.50
5775;DHT22;2913;51.120;6.772;2022-09-02T16:19:04;26.40;49.40
5775;DHT22;2913;51.120;6.772;2022-09-02T16:21:30;26.40;49.10
5775;DHT22;2913;51.120;6.772;2022-09-02T16:23:56;26.40;49.10
5775;DHT22;2913;51.120;6.772;2022-09-02T16:29:00;26.40;49.20
5775;DHT22;2913;51.120;6.772;2022-09-02T16:31:31;26.30;49.40
5775;DHT22;2913;51.120;6.772;2022-09-02T16:34:04;26.30;49.50
5775;DHT22;2913;51.120;6.772;2022-09-02T16:36:35;26.40;49.50
5775;DHT22;2913;51.120;6.772;2022-09-02T16:39:02;26.30;49.40
5775;DHT22;2913;51.120;6.772;2022-09-02T16:41:32;26.30;49.60
5775;DHT22;2913;51.120;6.772;2022-09-02T16:44:07;26.30;49.80
5775;DHT22;2913;51.120;6.772;2022-09-02T16:46:34;26.30;50.00
5775;DHT22;2913;51.120;6.772;2022-09-02T16:49:02;26.10;49.40
5775;DHT22;2913;51.120;6.772;2022-09-02T16:51:30;26.10;49.60
5775;DHT22;2913;51.120;6.772;2022-09-02T16:53:59;26.00;49.60
5775;DHT22;2913;51.120;6.772;2022-09-02T16:56:25;26.00;49.90
5775;DHT22;2913;51.120;6.772;2022-09-02T16:58:52;26.00;49.80
5775;DHT22;2913;51.120;6.772;2022-09-02T17:01:19;26.00;49.70
5775;DHT22;2913;51.120;6.772;2022-09-02T17:03:50;26.00;49.80
5775;DHT22;2913;51.120;6.772;2022-09-02T17:06:19;25.90;50.00
5775;DHT22;2913;51.120;6.772;2022-09-02T17:08:45;25.80;50.10
5775;DHT22;2913;51.120;6.772;2022-09-02T17:13:54;25.70;50.00
5775;DHT22;2913;51.120;6.772;2022-09-02T17:16:24;25.80;50.30
5775;DHT22;2913;51.120;6.772;2022-09-02T17:18:50;25.70;50.30
5775;DHT22;2913;51.120;6.772;2022-09-02T17:21:23;25.60;50.70
5775;DHT22;2913;51.120;6.772;2022-09-02T17:23:50;25.60;50.80
5775;DHT22;2913;51.120;6.772;2022-09-02T17:26:16;25.50;51.00
5775;DHT22;2913;51.120;6.772;2022-09-02T17:28:43;25.50;51.10
5775;DHT22;2913;51.120;6.772;2022-09-02T17:31:26;25.40;51.20
5775;DHT22;2913;51.120;6.772;2022-09-02T17:33:57;25.40;51.30
5775;DHT22;2913;51.120;6.772;2022-09-02T17:36:24;25.30;51.60
5775;DHT22;2913;51.120;6.772;2022-09-02T17:38:59;25.20;51.70
5775;DHT22;2913;51.120;6.772;2022-09-02T17:41:25;25.20;51.80
5775;DHT22;2913;51.120;6.772;2022-09-02T17:44:11;25.10;52.50
5775;DHT22;2913;51.120;6.772;2022-09-02T17:46:38;25.10;52.10
5775;DHT22;2913;51.120;6.772;2022-09-02T17:49:03;25.00;52.00
5775;DHT22;2913;51.120;6.772;2022-09-02T17:51:30;24.90;51.80
5775;DHT22;2913;51.120;6.772;2022-09-02T17:53:58;24.80;51.90
5775;DHT22;2913;51.120;6.772;2022-09-02T17:59:26;24.70;52.10
5775;DHT22;2913;51.120;6.772;2022-09-02T18:10:32;24.50;52.40
5775;DHT22;2913;51.120;6.772;2022-09-02T18:13:05;24.40;52.50
5775;DHT22;2913;51.120;6.772;2022-09-02T18:18:27;24.30;52.80
5775;DHT22;2913;51.120;6.772;2022-09-02T18:21:10;24.20;52.90
5775;DHT22;2913;51.120;6.772;2022-09-02T18:46:12;23.50;54.30
5775;DHT22;2913;51.120;6.772;2022-09-02T18:48:39;23.50;54.60
5775;DHT22;2913;51.120;6.772;2022-09-02T18:51:18;23.40;54.80
5775;DHT22;2913;51.120;6.772;2022-09-02T18:54:13;23.30;55.10
5775;DHT22;2913;51.120;6.772;2022-09-02T18:56:43;23.20;55.20
5775;DHT22;2913;51.120;6.772;2022-09-02T18:59:18;23.10;55.40
5775;DHT22;2913;51.120;6.772;2022-09-02T19:01:51;23.10;55.40
5775;DHT22;2913;51.120;6.772;2022-09-02T19:04:22;23.00;55.60
5775;DHT22;2913;51.120;6.772;2022-09-02T19:06:51;23.00;55.70
5775;DHT22;2913;51.120;6.772;2022-09-02T19:09:38;22.90;55.70
5775;DHT22;2913;51.120;6.772;2022-09-02T19:12:04;22.90;55.70
5775;DHT22;2913;51.120;6.772;2022-09-02T19:14:30;22.90;55.70
5775;DHT22;2913;51.120;6.772;2022-09-02T19:16:57;22.90;55.80
5775;DHT22;2913;51.120;6.772;2022-09-02T19:19:24;22.80;55.80
5775;DHT22;2913;51.120;6.772;2022-09-02T19:22:11;22.70;55.90
5775;DHT22;2913;51.120;6.772;2022-09-02T19:24:39;22.60;55.90
5775;DHT22;2913;51.120;6.772;2022-09-02T19:27:14;22.50;55.90
5775;DHT22;2913;51.120;6.772;2022-09-02T19:29:44;22.50;56.00
5775;DHT22;2913;51.120;6.772;2022-09-02T19:32:13;22.50;56.00
5775;DHT22;2913;51.120;6.772;2022-09-02T19:34:42;22.50;56.00
5775;DHT22;2913;51.120;6.772;2022-09-02T19:37:12;22.40;56.00
5775;DHT22;2913;51.120;6.772;2022-09-02T19:39:38;22.40;56.10
5775;DHT22;2913;51.120;6.772;2022-09-02T19:42:04;22.30;56.10
5775;DHT22;2913;51.120;6.772;2022-09-02T19:44:30;22.30;56.20